sensor_id;sensor_type;location;lat;lon;timestamp;pressure;altitude;pressure_sealevel;temperature;humidity
70982;BME280;58640;51.320;9.456;2022-12-15T00:02:31;98293.69;;;-8.34;91.32
70982;BME280;58640;51.320;9.456;2022-12-15T00:05:15;98299.94;;;-8.37;91.89
70982;BME280;58640;51.320;9.456;2022-12-15T00:08:09;98301.63;;;-8.36;91.54
70982;BME280;58640;51.320;9.456;2022-12-15T00:10:54;98306.91;;;-8.37;92.00
70982;BME280;58640;51.320;9.456;2022-12-15T00:13:38;98302.47;;;-8.35;91.24
70982;BME280;58640;51.320;9.456;2022-12-15T00:16:22;98310.63;;;-8.41;91.24
70982;BME280;58640;51.320;9.456;2022-12-15T00:19:06;98313.34;;;-8.43;91.15
70982;BME280;58640;51.320;9.456;2022-12-15T00:21:50;98312.66;;;-8.46;91.57
70982;BME280;58640;51.320;9.456;2022-12-15T00:24:34;98314.41;;;-8.47;91.45
70982;BME280;58640;51.320;9.456;2022-12-15T00:27:18;98319.63;;;-8.47;91.09
70982;BME280;58640;51.320;9.456;2022-12-15T00:30:04;98312.56;;;-8.45;91.08
70982;BME280;58640;51.320;9.456;2022-12-15T00:32:48;98308.94;;;-8.42;91.13
70982;BME280;58640;51.320;9.456;2022-12-15T00:35:32;98305.59;;;-8.44;90.96
70982;BME280;58640;51.320;9.456;2022-12-15T00:38:16;98309.97;;;-8.45;90.69
70982;BME280;58640;51.320;9.456;2022-12-15T00:41:00;98316.75;;;-8.42;90.80
70982;BME280;58640;51.320;9.456;2022-12-15T00:43:27;98315.19;;;-8.45;90.82
70982;BME280;58640;51.320;9.456;2022-12-15T00:45:54;98310.91;;;-8.46;91.27
70982;BME280;58640;51.320;9.456;2022-12-15T00:48:39;98324.66;;;-8.44;91.00
70982;BME280;58640;51.320;9.456;2022-12-15T00:51:04;98329.34;;;-8.49;90.92
70982;BME280;58640;51.320;9.456;2022-12-15T00:53:30;98331.94;;;-8.49;91.30
70982;BME280;58640;51.320;9.456;2022-12-15T00:56:14;98332.94;;;-8.51;91.33
70982;BME280;58640;51.320;9.456;2022-12-15T00:58:58;98338.16;;;-8.51;91.10
70982;BME280;58640;51.320;9.456;2022-12-15T01:01:42;98342.69;;;-8.55;91.42
70982;BME280;58640;51.320;9.456;2022-12-15T01:04:27;98337.47;;;-8.55;91.41
70982;BME280;58640;51.320;9.456;2022-12-15T01:07:11;98344.06;;;-8.63;91.22
70982;BME280;58640;51.320;9.456;2022-12-15T01:09:55;98339.84;;;-8.66;91.27
70982;BME280;58640;51.320;9.456;2022-12-15T01:12:39;98340.78;;;-8.67;91.30
70982;BME280;58640;51.320;9.456;2022-12-15T01:15:23;98350.34;;;-8.67;90.84
70982;BME280;58640;51.320;9.456;2022-12-15T01:18:07;98348.16;;;-8.75;91.30
70982;BME280;58640;51.320;9.456;2022-12-15T01:20:55;98354.22;;;-8.74;90.68
70982;BME280;58640;51.320;9.456;2022-12-15T01:23:21;98358.00;;;-8.80;90.67
70982;BME280;58640;51.320;9.456;2022-12-15T01:25:49;98364.13;;;-8.81;91.00
70982;BME280;58640;51.320;9.456;2022-12-15T01:28:15;98362.44;;;-8.82;90.84
70982;BME280;58640;51.320;9.456;2022-12-15T01:30:40;98366.31;;;-8.89;91.04
70982;BME280;58640;51.320;9.456;2022-12-15T01:33:05;98365.72;;;-8.94;90.83
70982;BME280;58640;51.320;9.456;2022-12-15T01:35:31;98367.31;;;-8.91;90.84
70982;BME280;58640;51.320;9.456;2022-12-15T01:37:56;98363.81;;;-8.90;90.92
70982;BME280;58640;51.320;9.456;2022-12-15T01:40:21;98365.72;;;-8.94;90.62
70982;BME280;58640;51.320;9.456;2022-12-15T01:43:16;98365.97;;;-8.98;90.17
70982;BME280;58640;51.320;9.456;2022-12-15T01:48:14;98372.34;;;-9.04;90.86
70982;BME280;58640;51.320;9.456;2022-12-15T01:50:45;98376.22;;;-9.11;91.01
70982;BME280;58640;51.320;9.456;2022-12-15T01:53:13;98375.88;;;-9.05;90.81
70982;BME280;58640;51.320;9.456;2022-12-15T01:55:41;98381.09;;;-9.05;90.90
70982;BME280;58640;51.320;9.456;2022-12-15T01:58:08;98383.69;;;-9.05;90.63
70982;BME280;58640;51.320;9.456;2022-12-15T02:00:36;98391.50;;;-9.05;90.76
70982;BME280;58640;51.320;9.456;2022-12-15T02:03:03;98397.59;;;-9.06;91.04
70982;BME280;58640;51.320;9.456;2022-12-15T02:05:29;98401.22;;;-9.08;90.49
70982;BME280;58640;51.320;9.456;2022-12-15T02:07:56;98401.56;;;-9.15;90.51
70982;BME280;58640;51.320;9.456;2022-12-15T02:10:28;98413.72;;;-9.15;90.48
70982;BME280;58640;51.320;9.456;2022-12-15T02:13:03;98416.66;;;-9.21;90.59
70982;BME280;58640;51.320;9.456;2022-12-15T02:15:43;98431.44;;;-9.22;90.63
70982;BME280;58640;51.320;9.456;2022-12-15T02:18:31;98426.31;;;-9.23;90.49
70982;BME280;58640;51.320;9.456;2022-12-15T02:21:29;98422.19;;;-9.27;90.44
70982;BME280;58640;51.320;9.456;2022-12-15T02:24:30;98426.63;;;-9.29;90.51
70982;BME280;58640;51.320;9.456;2022-12-15T02:30:20;98420.56;;;-9.30;90.97
70982;BME280;58640;51.320;9.456;2022-12-15T02:33:01;98415.69;;;-9.36;90.77
70982;BME280;58640;51.320;9.456;2022-12-15T02:35:40;98415.06;;;-9.41;90.71
70982;BME280;58640;51.320;9.456;2022-12-15T02:38:09;98421.94;;;-9.40;91.03
70982;BME280;58640;51.320;9.456;2022-12-15T02:40:35;98423.91;;;-9.43;90.97
70982;BME280;58640;51.320;9.456;2022-12-15T02:43:03;98429.91;;;-9.43;90.81
70982;BME280;58640;51.320;9.456;2022-12-15T02:48:26;98436.59;;;-9.54;90.72
70982;BME280;58640;51.320;9.456;2022-12-15T02:54:21;98450.69;;;-9.58;90.78
70982;BME280;58640;51.320;9.456;2022-12-15T02:57:19;98451.59;;;-9.59;90.30
70982;BME280;58640;51.320;9.456;2022-12-15T02:59:56;98449.09;;;-9.61;90.60
70982;BME280;58640;51.320;9.456;2022-12-15T03:02:28;98456.03;;;-9.61;90.31
70982;BME280;58640;51.320;9.456;2022-12-15T03:04:55;98449.31;;;-9.65;90.03
70982;BME280;58640;51.320;9.456;2022-12-15T03:07:22;98456.19;;;-9.64;89.51
70982;BME280;58640;51.320;9.456;2022-12-15T03:09:47;98471.19;;;-9.69;89.53
70982;BME280;58640;51.320;9.456;2022-12-15T03:12:12;98460.78;;;-9.69;89.59
70982;BME280;58640;51.320;9.456;2022-12-15T03:14:38;98464.47;;;-9.73;90.15
70982;BME280;58640;51.320;9.456;2022-12-15T03:17:03;98474.88;;;-9.73;90.30
70982;BME280;58640;51.320;9.456;2022-12-15T03:19:31;98473.09;;;-9.73;90.04
70982;BME280;58640;51.320;9.456;2022-12-15T03:21:56;98467.88;;;-9.73;89.86
70982;BME280;58640;51.320;9.456;2022-12-15T03:24:21;98467.06;;;-9.73;90.35
70982;BME280;58640;51.320;9.456;2022-12-15T03:26:47;98466.13;;;-9.72;90.59
70982;BME280;58640;51.320;9.456;2022-12-15T03:29:16;98468.72;;;-9.72;90.34
70982;BME280;58640;51.320;9.456;2022-12-15T03:31:42;98471.97;;;-9.67;91.30
70982;BME280;58640;51.320;9.456;2022-12-15T03:34:08;98465.81;;;-9.66;91.51
70982;BME280;58640;51.320;9.456;2022-12-15T03:36:34;98471.97;;;-9.50;91.47
70982;BME280;58640;51.320;9.456;2022-12-15T03:38:59;98468.81;;;-9.57;92.46
70982;BME280;58640;51.320;9.456;2022-12-15T03:41:24;98466.38;;;-9.60;92.69
70982;BME280;58640;51.320;9.456;2022-12-15T03:43:50;98461.09;;;-9.58;92.72
70982;BME280;58640;51.320;9.456;2022-12-15T03:46:15;98477.25;;;-9.52;93.69
70982;BME280;58640;51.320;9.456;2022-12-15T03:48:40;98483.44;;;-9.20;92.82
70982;BME280;58640;51.320;9.456;2022-12-15T03:51:06;98480.53;;;-9.31;93.05
70982;BME280;58640;51.320;9.456;2022-12-15T03:53:31;98474.34;;;-9.29;92.65
70982;BME280;58640;51.320;9.456;2022-12-15T03:55:56;98487.19;;;-9.26;92.45
70982;BME280;58640;51.320;9.456;2022-12-15T03:58:22;98489.50;;;-9.37;92.46
70982;BME280;58640;51.320;9.456;2022-12-15T04:00:47;98503.66;;;-9.42;92.78
70982;BME280;58640;51.320;9.456;2022-12-15T04:03:12;98507.41;;;-9.48;92.58
70982;BME280;58640;51.320;9.456;2022-12-15T04:05:38;98511.22;;;-9.55;93.19
70982;BME280;58640;51.320;9.456;2022-12-15T04:08:04;98519.09;;;-9.56;93.11
70982;BME280;58640;51.320;9.456;2022-12-15T04:10:31;98513.91;;;-9.56;93.08
70982;BME280;58640;51.320;9.456;2022-12-15T04:12:58;98513.97;;;-9.58;93.20
70982;BME280;58640;51.320;9.456;2022-12-15T04:15:24;98513.28;;;-9.61;93.92
70982;BME280;58640;51.320;9.456;2022-12-15T04:17:49;98509.59;;;-9.57;92.90
70982;BME280;58640;51.320;9.456;2022-12-15T04:20:14;98511.59;;;-9.62;93.09
70982;BME280;58640;51.320;9.456;2022-12-15T04:22:42;98514.81;;;-9.57;93.58
70982;BME280;58640;51.320;9.456;2022-12-15T04:25:11;98512.16;;;-9.56;93.41
70982;BME280;58640;51.320;9.456;2022-12-15T04:27:55;98516.66;;;-9.59;92.82
70982;BME280;58640;51.320;9.456;2022-12-15T04:30:41;98523.91;;;-9.66;93.62
70982;BME280;58640;51.320;9.456;2022-12-15T04:33:27;98530.75;;;-9.29;92.92
70982;BME280;58640;51.320;9.456;2022-12-15T04:36:11;98528.66;;;-9.40;92.22
70982;BME280;58640;51.320;9.456;2022-12-15T04:38:56;98525.69;;;-9.49;92.39
70982;BME280;58640;51.320;9.456;2022-12-15T04:41:40;98525.22;;;-9.57;93.32
70982;BME280;58640;51.320;9.456;2022-12-15T04:44:25;98523.63;;;-9.60;94.01
70982;BME280;58640;51.320;9.456;2022-12-15T04:47:08;98524.47;;;-9.59;94.09
70982;BME280;58640;51.320;9.456;2022-12-15T04:49:52;98524.94;;;-9.51;93.71
70982;BME280;58640;51.320;9.456;2022-12-15T04:52:36;98521.72;;;-9.56;94.26
70982;BME280;58640;51.320;9.456;2022-12-15T04:55:20;98524.63;;;-9.62;94.71
70982;BME280;58640;51.320;9.456;2022-12-15T04:58:06;98537.09;;;-9.52;94.80
70982;BME280;58640;51.320;9.456;2022-12-15T05:00:50;98546.56;;;-9.51;94.32
70982;BME280;58640;51.320;9.456;2022-12-15T05:03:34;98547.91;;;-9.42;94.83
70982;BME280;58640;51.320;9.456;2022-12-15T05:06:18;98551.13;;;-9.20;94.73
70982;BME280;58640;51.320;9.456;2022-12-15T05:09:02;98553.50;;;-9.16;94.55
70982;BME280;58640;51.320;9.456;2022-12-15T05:11:46;98558.78;;;-9.17;94.80
70982;BME280;58640;51.320;9.456;2022-12-15T05:14:30;98554.19;;;-8.95;93.87
70982;BME280;58640;51.320;9.456;2022-12-15T05:17:14;98548.47;;;-9.01;93.85
70982;BME280;58640;51.320;9.456;2022-12-15T05:19:58;98562.31;;;-9.01;94.16
70982;BME280;58640;51.320;9.456;2022-12-15T05:22:42;98564.91;;;-9.18;95.33
70982;BME280;58640;51.320;9.456;2022-12-15T05:25:26;98560.09;;;-9.26;96.15
70982;BME280;58640;51.320;9.456;2022-12-15T05:28:10;98557.34;;;-9.23;96.24
70982;BME280;58640;51.320;9.456;2022-12-15T05:30:54;98552.03;;;-9.04;95.80
70982;BME280;58640;51.320;9.456;2022-12-15T05:33:38;98560.25;;;-9.12;96.92
70982;BME280;58640;51.320;9.456;2022-12-15T05:36:04;98560.63;;;-9.02;97.27
70982;BME280;58640;51.320;9.456;2022-12-15T05:38:29;98558.41;;;-8.92;97.56
70982;BME280;58640;51.320;9.456;2022-12-15T05:40:58;98566.22;;;-8.92;97.85
70982;BME280;58640;51.320;9.456;2022-12-15T05:43:24;98566.44;;;-8.80;98.31
70982;BME280;58640;51.320;9.456;2022-12-15T05:45:49;98566.19;;;-8.75;98.20
70982;BME280;58640;51.320;9.456;2022-12-15T05:48:15;98570.78;;;-8.63;99.05
70982;BME280;58640;51.320;9.456;2022-12-15T05:50:40;98582.56;;;-8.56;99.21
70982;BME280;58640;51.320;9.456;2022-12-15T05:53:05;98577.97;;;-8.51;99.31
70982;BME280;58640;51.320;9.456;2022-12-15T05:55:31;98589.13;;;-8.32;99.51
70982;BME280;58640;51.320;9.456;2022-12-15T05:57:56;98593.88;;;-8.23;100.00
70982;BME280;58640;51.320;9.456;2022-12-15T06:00:22;98583.50;;;-8.09;100.00
70982;BME280;58640;51.320;9.456;2022-12-15T06:02:47;98583.69;;;-7.97;100.00
70982;BME280;58640;51.320;9.456;2022-12-15T06:05:12;98592.50;;;-7.99;100.00
70982;BME280;58640;51.320;9.456;2022-12-15T06:07:38;98584.88;;;-7.87;100.00
70982;BME280;58640;51.320;9.456;2022-12-15T06:10:04;98593.63;;;-7.72;99.71
70982;BME280;58640;51.320;9.456;2022-12-15T06:12:29;98596.50;;;-7.61;99.37
70982;BME280;58640;51.320;9.456;2022-12-15T06:14:54;98594.81;;;-7.62;99.00
70982;BME280;58640;51.320;9.456;2022-12-15T06:17:20;98595.75;;;-7.63;99.24
70982;BME280;58640;51.320;9.456;2022-12-15T06:19:45;98592.78;;;-7.73;99.73
70982;BME280;58640;51.320;9.456;2022-12-15T06:22:10;98600.09;;;-7.64;99.42
70982;BME280;58640;51.320;9.456;2022-12-15T06:24:36;98603.13;;;-7.56;99.66
70982;BME280;58640;51.320;9.456;2022-12-15T06:27:01;98597.81;;;-7.54;99.39
70982;BME280;58640;51.320;9.456;2022-12-15T06:29:27;98601.28;;;-7.53;99.87
70982;BME280;58640;51.320;9.456;2022-12-15T06:31:52;98596.06;;;-7.38;99.10
70982;BME280;58640;51.320;9.456;2022-12-15T06:34:18;98604.16;;;-7.42;99.55
70982;BME280;58640;51.320;9.456;2022-12-15T06:36:43;98619.56;;;-7.38;99.72
70982;BME280;58640;51.320;9.456;2022-12-15T06:39:11;98618.53;;;-7.35;100.00
70982;BME280;58640;51.320;9.456;2022-12-15T06:41:38;98621.91;;;-7.33;100.00
70982;BME280;58640;51.320;9.456;2022-12-15T06:44:04;98622.50;;;-7.28;100.00
70982;BME280;58640;51.320;9.456;2022-12-15T06:46:31;98619.44;;;-7.21;100.00
70982;BME280;58640;51.320;9.456;2022-12-15T06:48:57;98627.97;;;-7.17;100.00
70982;BME280;58640;51.320;9.456;2022-12-15T06:51:23;98624.25;;;-7.13;100.00
70982;BME280;58640;51.320;9.456;2022-12-15T06:53:49;98631.88;;;-7.24;100.00
70982;BME280;58640;51.320;9.456;2022-12-15T06:56:27;98628.72;;;-7.15;100.00
70982;BME280;58640;51.320;9.456;2022-12-15T06:58:53;98629.72;;;-7.18;100.00
70982;BME280;58640;51.320;9.456;2022-12-15T07:01:20;98627.50;;;-7.10;100.00
70982;BME280;58640;51.320;9.456;2022-12-15T07:03:46;98636.88;;;-7.06;100.00
70982;BME280;58640;51.320;9.456;2022-12-15T07:06:13;98631.47;;;-7.03;100.00
70982;BME280;58640;51.320;9.456;2022-12-15T07:08:39;98644.00;;;-6.94;100.00
70982;BME280;58640;51.320;9.456;2022-12-15T07:11:07;98635.94;;;-6.89;100.00
70982;BME280;58640;51.320;9.456;2022-12-15T07:13:32;98645.09;;;-6.82;100.00
70982;BME280;58640;51.320;9.456;2022-12-15T07:16:03;98641.72;;;-6.84;100.00
70982;BME280;58640;51.320;9.456;2022-12-15T07:18:29;98646.63;;;-6.78;100.00
70982;BME280;58640;51.320;9.456;2022-12-15T07:20:55;98655.53;;;-6.82;100.00
70982;BME280;58640;51.320;9.456;2022-12-15T07:23:21;98654.19;;;-6.74;100.00
70982;BME280;58640;51.320;9.456;2022-12-15T07:25:47;98648.13;;;-6.60;99.90
70982;BME280;58640;51.320;9.456;2022-12-15T07:28:12;98659.94;;;-6.53;98.61
70982;BME280;58640;51.320;9.456;2022-12-15T07:30:38;98658.88;;;-6.65;98.56
70982;BME280;58640;51.320;9.456;2022-12-15T07:33:03;98671.28;;;-6.68;98.88
70982;BME280;58640;51.320;9.456;2022-12-15T07:35:29;98664.88;;;-6.63;98.52
70982;BME280;58640;51.320;9.456;2022-12-15T07:37:55;98660.31;;;-6.59;98.63
70982;BME280;58640;51.320;9.456;2022-12-15T07:40:20;98665.38;;;-6.42;98.10
70982;BME280;58640;51.320;9.456;2022-12-15T07:42:46;98660.25;;;-6.44;96.90
70982;BME280;58640;51.320;9.456;2022-12-15T07:45:12;98659.84;;;-6.52;97.74
70982;BME280;58640;51.320;9.456;2022-12-15T07:47:38;98658.19;;;-6.53;98.16
70982;BME280;58640;51.320;9.456;2022-12-15T07:50:04;98667.25;;;-6.44;97.06
70982;BME280;58640;51.320;9.456;2022-12-15T07:52:30;98667.03;;;-6.55;97.45
70982;BME280;58640;51.320;9.456;2022-12-15T07:54:55;98662.69;;;-6.41;97.34
70982;BME280;58640;51.320;9.456;2022-12-15T07:57:21;98666.31;;;-6.43;97.10
70982;BME280;58640;51.320;9.456;2022-12-15T07:59:46;98667.25;;;-6.44;97.80
70982;BME280;58640;51.320;9.456;2022-12-15T08:02:12;98676.59;;;-6.40;97.25
70982;BME280;58640;51.320;9.456;2022-12-15T08:04:38;98688.13;;;-6.58;98.93
70982;BME280;58640;51.320;9.456;2022-12-15T08:07:05;98679.53;;;-6.60;98.99
70982;BME280;58640;51.320;9.456;2022-12-15T08:09:30;98684.97;;;-6.49;99.18
70982;BME280;58640;51.320;9.456;2022-12-15T08:11:56;98681.63;;;-6.51;99.29
70982;BME280;58640;51.320;9.456;2022-12-15T08:14:21;98676.97;;;-6.46;99.09
70982;BME280;58640;51.320;9.456;2022-12-15T08:16:47;98679.94;;;-6.38;99.03
70982;BME280;58640;51.320;9.456;2022-12-15T08:19:13;98693.56;;;-6.18;98.25
70982;BME280;58640;51.320;9.456;2022-12-15T08:21:40;98685.06;;;-6.21;97.89
70982;BME280;58640;51.320;9.456;2022-12-15T08:24:05;98692.63;;;-6.17;98.25
70982;BME280;58640;51.320;9.456;2022-12-15T08:26:32;98684.59;;;-6.14;97.93
70982;BME280;58640;51.320;9.456;2022-12-15T08:29:02;98694.13;;;-6.13;97.55
70982;BME280;58640;51.320;9.456;2022-12-15T08:31:28;98698.44;;;-6.12;97.14
70982;BME280;58640;51.320;9.456;2022-12-15T08:33:55;98690.31;;;-6.07;96.42
70982;BME280;58640;51.320;9.456;2022-12-15T08:36:20;98701.53;;;-6.19;97.03
70982;BME280;58640;51.320;9.456;2022-12-15T08:38:46;98700.38;;;-6.15;97.29
70982;BME280;58640;51.320;9.456;2022-12-15T08:43:39;98718.16;;;-6.06;97.29
70982;BME280;58640;51.320;9.456;2022-12-15T08:46:05;98716.47;;;-6.07;96.91
70982;BME280;58640;51.320;9.456;2022-12-15T08:48:32;98715.44;;;-6.05;97.09
70982;BME280;58640;51.320;9.456;2022-12-15T08:50:57;98710.69;;;-5.98;96.47
70982;BME280;58640;51.320;9.456;2022-12-15T08:53:24;98707.31;;;-5.72;94.84
70982;BME280;58640;51.320;9.456;2022-12-15T08:55:49;98702.56;;;-5.79;94.54
70982;BME280;58640;51.320;9.456;2022-12-15T08:58:15;98712.22;;;-5.94;95.30
70982;BME280;58640;51.320;9.456;2022-12-15T09:00:40;98713.97;;;-5.94;95.50
70982;BME280;58640;51.320;9.456;2022-12-15T09:03:05;98714.91;;;-5.95;95.34
70982;BME280;58640;51.320;9.456;2022-12-15T09:05:34;98709.97;;;-5.86;95.29
70982;BME280;58640;51.320;9.456;2022-12-15T09:07:59;98710.88;;;-5.87;95.39
70982;BME280;58640;51.320;9.456;2022-12-15T09:10:25;98728.66;;;-5.92;95.62
70982;BME280;58640;51.320;9.456;2022-12-15T09:12:50;98722.94;;;-5.70;94.71
70982;BME280;58640;51.320;9.456;2022-12-15T09:15:16;98731.25;;;-5.78;94.49
70982;BME280;58640;51.320;9.456;2022-12-15T09:17:42;98740.72;;;-5.89;94.96
70982;BME280;58640;51.320;9.456;2022-12-15T09:20:08;98746.25;;;-5.94;94.81
70982;BME280;58640;51.320;9.456;2022-12-15T09:22:33;98734.88;;;-5.80;94.29
70982;BME280;58640;51.320;9.456;2022-12-15T09:25:00;98728.84;;;-5.81;94.41
70982;BME280;58640;51.320;9.456;2022-12-15T09:27:26;98741.19;;;-5.83;94.45
70982;BME280;58640;51.320;9.456;2022-12-15T09:29:53;98737.22;;;-5.76;94.21
70982;BME280;58640;51.320;9.456;2022-12-15T09:32:18;98744.53;;;-5.81;94.21
70982;BME280;58640;51.320;9.456;2022-12-15T09:34:44;98756.91;;;-5.83;94.29
70982;BME280;58640;51.320;9.456;2022-12-15T09:37:09;98752.22;;;-5.78;94.97
70982;BME280;58640;51.320;9.456;2022-12-15T09:39:34;98744.09;;;-5.59;93.66
70982;BME280;58640;51.320;9.456;2022-12-15T09:42:02;98737.91;;;-5.44;93.63
70982;BME280;58640;51.320;9.456;2022-12-15T09:44:28;98745.38;;;-5.24;93.15
70982;BME280;58640;51.320;9.456;2022-12-15T09:50:15;98756.44;;;-5.33;92.47
70982;BME280;58640;51.320;9.456;2022-12-15T09:52:48;98759.53;;;-5.27;92.27
70982;BME280;58640;51.320;9.456;2022-12-15T09:55:21;98762.13;;;-5.41;92.48
70982;BME280;58640;51.320;9.456;2022-12-15T09:57:55;98763.44;;;-5.20;92.59
70982;BME280;58640;51.320;9.456;2022-12-15T10:00:30;98765.16;;;-5.19;92.07
70982;BME280;58640;51.320;9.456;2022-12-15T10:08:28;98774.97;;;-5.22;92.68
70982;BME280;58640;51.320;9.456;2022-12-15T10:11:18;98786.56;;;-5.26;93.22
70982;BME280;58640;51.320;9.456;2022-12-15T10:22:26;98773.38;;;-5.11;91.46
70982;BME280;58640;51.320;9.456;2022-12-15T10:24:54;98778.56;;;-4.83;90.70
70982;BME280;58640;51.320;9.456;2022-12-15T10:27:57;98766.03;;;-4.92;90.77
70982;BME280;58640;51.320;9.456;2022-12-15T10:30:27;98783.25;;;-4.88;91.41
70982;BME280;58640;51.320;9.456;2022-12-15T10:33:01;98779.22;;;-4.79;91.49
70982;BME280;58640;51.320;9.456;2022-12-15T10:35:30;98767.94;;;-4.67;90.48
70982;BME280;58640;51.320;9.456;2022-12-15T10:38:01;98775.53;;;-4.77;89.61
70982;BME280;58640;51.320;9.456;2022-12-15T10:40:45;98775.84;;;-4.55;88.90
70982;BME280;58640;51.320;9.456;2022-12-15T10:43:49;98774.44;;;-4.73;88.63
70982;BME280;58640;51.320;9.456;2022-12-15T10:48:33;98766.75;;;-4.76;89.20
70982;BME280;58640;51.320;9.456;2022-12-15T10:51:31;98762.44;;;-4.77;89.92
70982;BME280;58640;51.320;9.456;2022-12-15T10:54:04;98765.50;;;-4.70;89.74
70982;BME280;58640;51.320;9.456;2022-12-15T10:56:33;98759.28;;;-4.55;88.11
70982;BME280;58640;51.320;9.456;2022-12-15T10:59:01;98759.16;;;-4.66;88.42
70982;BME280;58640;51.320;9.456;2022-12-15T11:01:30;98757.44;;;-4.67;88.92
70982;BME280;58640;51.320;9.456;2022-12-15T11:03:56;98756.78;;;-4.57;88.21
70982;BME280;58640;51.320;9.456;2022-12-15T11:06:27;98746.59;;;-4.75;89.60
70982;BME280;58640;51.320;9.456;2022-12-15T11:08:56;98752.28;;;-4.69;88.47
70982;BME280;58640;51.320;9.456;2022-12-15T11:11:30;98762.22;;;-5.00;91.59
70982;BME280;58640;51.320;9.456;2022-12-15T11:14:17;98770.78;;;-4.84;89.77
70982;BME280;58640;51.320;9.456;2022-12-15T11:16:57;98768.28;;;-4.86;90.43
70982;BME280;58640;51.320;9.456;2022-12-15T11:19:29;98763.28;;;-4.76;89.83
70982;BME280;58640;51.320;9.456;2022-12-15T11:22:11;98768.53;;;-4.76;90.46
70982;BME280;58640;51.320;9.456;2022-12-15T11:24:48;98764.25;;;-4.51;87.84
70982;BME280;58640;51.320;9.456;2022-12-15T11:27:23;98761.38;;;-4.60;88.46
70982;BME280;58640;51.320;9.456;2022-12-15T11:32:27;98756.03;;;-4.59;88.82
70982;BME280;58640;51.320;9.456;2022-12-15T11:34:54;98751.78;;;-4.61;89.77
70982;BME280;58640;51.320;9.456;2022-12-15T11:37:39;98757.88;;;-4.61;89.60
70982;BME280;58640;51.320;9.456;2022-12-15T11:40:33;98750.41;;;-4.40;89.20
70982;BME280;58640;51.320;9.456;2022-12-15T11:43:35;98756.66;;;-4.28;88.58
70982;BME280;58640;51.320;9.456;2022-12-15T11:46:20;98757.94;;;-4.48;88.30
70982;BME280;58640;51.320;9.456;2022-12-15T11:52:02;98757.91;;;-4.34;86.97
70982;BME280;58640;51.320;9.456;2022-12-15T12:00:11;98752.19;;;-4.67;89.79
70982;BME280;58640;51.320;9.456;2022-12-15T12:11:42;98742.44;;;-4.38;89.84
70982;BME280;58640;51.320;9.456;2022-12-15T12:16:45;98746.59;;;-4.22;87.93
70982;BME280;58640;51.320;9.456;2022-12-15T12:19:22;98744.63;;;-4.45;89.00
70982;BME280;58640;51.320;9.456;2022-12-15T12:21:52;98747.66;;;-4.51;89.07
70982;BME280;58640;51.320;9.456;2022-12-15T12:24:32;98740.72;;;-4.52;89.55
70982;BME280;58640;51.320;9.456;2022-12-15T12:29:54;98749.56;;;-4.67;90.53
70982;BME280;58640;51.320;9.456;2022-12-15T12:32:33;98752.66;;;-4.34;89.33
70982;BME280;58640;51.320;9.456;2022-12-15T12:35:17;98732.03;;;-4.40;89.85
70982;BME280;58640;51.320;9.456;2022-12-15T12:37:52;98740.50;;;-4.22;90.03
70982;BME280;58640;51.320;9.456;2022-12-15T12:43:11;98732.88;;;-4.39;89.35
70982;BME280;58640;51.320;9.456;2022-12-15T12:45:47;98734.28;;;-4.61;89.23
70982;BME280;58640;51.320;9.456;2022-12-15T12:48:28;98726.34;;;-4.47;88.98
70982;BME280;58640;51.320;9.456;2022-12-15T12:51:29;98719.66;;;-4.77;90.66
70982;BME280;58640;51.320;9.456;2022-12-15T12:53:56;98721.81;;;-4.57;89.92
70982;BME280;58640;51.320;9.456;2022-12-15T12:56:45;98715.22;;;-4.77;90.64
70982;BME280;58640;51.320;9.456;2022-12-15T13:07:28;98705.56;;;-4.50;89.65
70982;BME280;58640;51.320;9.456;2022-12-15T13:12:45;98712.78;;;-4.53;90.44
70982;BME280;58640;51.320;9.456;2022-12-15T13:18:16;98700.34;;;-4.76;91.42
70982;BME280;58640;51.320;9.456;2022-12-15T13:20:43;98709.31;;;-4.80;91.89
70982;BME280;58640;51.320;9.456;2022-12-15T13:23:39;98707.28;;;-4.63;90.90
70982;BME280;58640;51.320;9.456;2022-12-15T13:41:28;98696.16;;;-5.33;94.76
70982;BME280;58640;51.320;9.456;2022-12-15T13:43:53;98688.88;;;-5.42;95.11
70982;BME280;58640;51.320;9.456;2022-12-15T13:46:25;98689.41;;;-5.23;94.37
70982;BME280;58640;51.320;9.456;2022-12-15T13:49:06;98685.88;;;-5.36;94.82
70982;BME280;58640;51.320;9.456;2022-12-15T13:51:37;98693.84;;;-5.38;95.16
70982;BME280;58640;51.320;9.456;2022-12-15T13:54:22;98697.09;;;-5.34;94.96
70982;BME280;58640;51.320;9.456;2022-12-15T13:57:16;98681.38;;;-5.34;95.21
70982;BME280;58640;51.320;9.456;2022-12-15T13:59:45;98675.09;;;-5.32;95.09
70982;BME280;58640;51.320;9.456;2022-12-15T14:02:32;98670.22;;;-5.24;94.60
70982;BME280;58640;51.320;9.456;2022-12-15T14:13:18;98646.22;;;-5.44;95.98
70982;BME280;58640;51.320;9.456;2022-12-15T14:15:51;98645.38;;;-5.45;96.06
70982;BME280;58640;51.320;9.456;2022-12-15T14:18:36;98652.56;;;-5.48;96.17
70982;BME280;58640;51.320;9.456;2022-12-15T14:21:17;98644.06;;;-5.52;96.45
70982;BME280;58640;51.320;9.456;2022-12-15T14:23:44;98645.75;;;-5.51;96.83
70982;BME280;58640;51.320;9.456;2022-12-15T14:26:12;98634.53;;;-5.53;96.84
70982;BME280;58640;51.320;9.456;2022-12-15T14:28:43;98645.00;;;-5.53;96.87
70982;BME280;58640;51.320;9.456;2022-12-15T14:31:16;98635.56;;;-5.55;96.66
70982;BME280;58640;51.320;9.456;2022-12-15T14:33:45;98635.00;;;-5.60;96.97
70982;BME280;58640;51.320;9.456;2022-12-15T14:36:13;98625.81;;;-5.53;96.98
70982;BME280;58640;51.320;9.456;2022-12-15T14:38:57;98623.41;;;-5.56;96.33
70982;BME280;58640;51.320;9.456;2022-12-15T14:41:26;98619.59;;;-5.65;96.97
70982;BME280;58640;51.320;9.456;2022-12-15T14:43:58;98623.53;;;-5.72;97.18
70982;BME280;58640;51.320;9.456;2022-12-15T14:46:26;98621.34;;;-5.51;96.05
70982;BME280;58640;51.320;9.456;2022-12-15T14:48:57;98621.25;;;-5.64;96.62
70982;BME280;58640;51.320;9.456;2022-12-15T14:51:25;98620.16;;;-5.74;96.90
70982;BME280;58640;51.320;9.456;2022-12-15T14:53:53;98631.09;;;-5.81;97.23
70982;BME280;58640;51.320;9.456;2022-12-15T14:58:54;98631.44;;;-5.86;97.96
70982;BME280;58640;51.320;9.456;2022-12-15T15:01:36;98627.66;;;-5.82;97.90
70982;BME280;58640;51.320;9.456;2022-12-15T15:04:20;98641.13;;;-5.88;98.10
70982;BME280;58640;51.320;9.456;2022-12-15T15:06:53;98642.28;;;-5.92;98.42
70982;BME280;58640;51.320;9.456;2022-12-15T15:09:27;98638.25;;;-5.97;98.54
70982;BME280;58640;51.320;9.456;2022-12-15T15:11:55;98644.69;;;-6.03;98.63